sensor_id;sensor_type;location;lat;lon;timestamp;P1;durP1;ratioP1;P2;durP2;ratioP2
75843;SDS011;64492;51.270;3.912;2022-10-30T00:02:13;4.85;;;2.75;;
75843;SDS011;64492;51.270;3.912;2022-10-30T00:04:40;5.35;;;2.70;;
75843;SDS011;64492;51.270;3.912;2022-10-30T00:07:06;4.55;;;2.55;;
75843;SDS011;64492;51.270;3.912;2022-10-30T00:09:33;5.03;;;2.90;;
75843;SDS011;64492;51.270;3.912;2022-10-30T00:11:59;6.40;;;3.17;;
75843;SDS011;64492;51.270;3.912;2022-10-30T00:14:26;4.55;;;2.95;;
75843;SDS011;64492;51.270;3.912;2022-10-30T00:16:52;5.55;;;2.42;;
75843;SDS011;64492;51.270;3.912;2022-10-30T00:19:20;4.57;;;2.42;;
75843;SDS011;64492;51.270;3.912;2022-10-30T00:21:46;4.60;;;2.60;;
75843;SDS011;64492;51.270;3.912;2022-10-30T00:24:13;5.07;;;2.70;;
75843;SDS011;64492;51.270;3.912;2022-10-30T00:26:39;4.35;;;2.45;;
75843;SDS011;64492;51.270;3.912;2022-10-30T00:29:06;5.78;;;2.72;;
75843;SDS011;64492;51.270;3.912;2022-10-30T00:31:32;4.68;;;3.00;;
75843;SDS011;64492;51.270;3.912;2022-10-30T00:33:59;4.57;;;2.63;;
75843;SDS011;64492;51.270;3.912;2022-10-30T00:36:27;5.28;;;2.97;;
75843;SDS011;64492;51.270;3.912;2022-10-30T00:38:53;6.13;;;3.00;;
75843;SDS011;64492;51.270;3.912;2022-10-30T00:41:20;4.20;;;2.53;;
75843;SDS011;64492;51.270;3.912;2022-10-30T00:43:47;4.45;;;2.90;;
75843;SDS011;64492;51.270;3.912;2022-10-30T00:46:15;5.15;;;2.85;;
75843;SDS011;64492;51.270;3.912;2022-10-30T00:48:45;4.18;;;2.70;;
75843;SDS011;64492;51.270;3.912;2022-10-30T00:51:13;3.65;;;2.53;;
75843;SDS011;64492;51.270;3.912;2022-10-30T00:53:41;6.05;;;2.65;;
75843;SDS011;64492;51.270;3.912;2022-10-30T00:56:08;5.25;;;2.85;;
75843;SDS011;64492;51.270;3.912;2022-10-30T00:58:36;4.72;;;2.80;;
75843;SDS011;64492;51.270;3.912;2022-10-30T01:01:06;5.60;;;3.08;;
75843;SDS011;64492;51.270;3.912;2022-10-30T01:03:35;4.40;;;2.75;;
75843;SDS011;64492;51.270;3.912;2022-10-30T01:06:03;4.90;;;2.97;;
75843;SDS011;64492;51.270;3.912;2022-10-30T01:08:32;5.05;;;3.25;;
75843;SDS011;64492;51.270;3.912;2022-10-30T01:11:00;4.10;;;2.40;;
75843;SDS011;64492;51.270;3.912;2022-10-30T01:13:27;5.93;;;3.40;;
75843;SDS011;64492;51.270;3.912;2022-10-30T01:16:00;5.10;;;3.10;;
75843;SDS011;64492;51.270;3.912;2022-10-30T01:18:34;4.82;;;2.72;;
75843;SDS011;64492;51.270;3.912;2022-10-30T01:21:21;5.20;;;3.00;;
75843;SDS011;64492;51.270;3.912;2022-10-30T01:24:11;4.93;;;2.88;;
75843;SDS011;64492;51.270;3.912;2022-10-30T01:27:03;5.00;;;2.83;;
75843;SDS011;64492;51.270;3.912;2022-10-30T01:29:40;3.45;;;2.42;;
75843;SDS011;64492;51.270;3.912;2022-10-30T01:32:18;4.93;;;2.78;;
75843;SDS011;64492;51.270;3.912;2022-10-30T01:34:54;4.72;;;2.58;;
75843;SDS011;64492;51.270;3.912;2022-10-30T01:37:24;4.30;;;2.63;;
75843;SDS011;64492;51.270;3.912;2022-10-30T01:39:54;5.57;;;3.10;;
75843;SDS011;64492;51.270;3.912;2022-10-30T01:45:21;4.95;;;2.65;;
75843;SDS011;64492;51.270;3.912;2022-10-30T01:47:56;6.63;;;2.92;;
75843;SDS011;64492;51.270;3.912;2022-10-30T01:50:34;4.80;;;2.85;;
75843;SDS011;64492;51.270;3.912;2022-10-30T01:53:03;4.70;;;2.80;;
75843;SDS011;64492;51.270;3.912;2022-10-30T01:55:34;5.22;;;2.72;;
75843;SDS011;64492;51.270;3.912;2022-10-30T01:58:11;4.32;;;2.90;;
75843;SDS011;64492;51.270;3.912;2022-10-30T02:00:42;4.43;;;2.80;;
75843;SDS011;64492;51.270;3.912;2022-10-30T02:03:09;5.40;;;2.83;;
75843;SDS011;64492;51.270;3.912;2022-10-30T02:05:36;3.75;;;2.60;;
75843;SDS011;64492;51.270;3.912;2022-10-30T02:08:05;4.25;;;2.90;;
75843;SDS011;64492;51.270;3.912;2022-10-30T02:10:32;4.75;;;3.13;;
75843;SDS011;64492;51.270;3.912;2022-10-30T02:12:59;4.35;;;2.45;;
75843;SDS011;64492;51.270;3.912;2022-10-30T02:15:27;5.25;;;3.05;;
75843;SDS011;64492;51.270;3.912;2022-10-30T02:17:54;4.57;;;2.65;;
75843;SDS011;64492;51.270;3.912;2022-10-30T02:20:22;4.82;;;2.67;;
75843;SDS011;64492;51.270;3.912;2022-10-30T02:22:49;5.43;;;2.70;;
75843;SDS011;64492;51.270;3.912;2022-10-30T02:25:16;4.38;;;2.88;;
75843;SDS011;64492;51.270;3.912;2022-10-30T02:27:42;5.10;;;2.72;;
75843;SDS011;64492;51.270;3.912;2022-10-30T02:30:09;5.18;;;2.95;;
75843;SDS011;64492;51.270;3.912;2022-10-30T02:32:36;5.30;;;2.95;;
75843;SDS011;64492;51.270;3.912;2022-10-30T02:35:03;5.80;;;2.90;;
75843;SDS011;64492;51.270;3.912;2022-10-30T02:37:32;4.63;;;2.80;;
75843;SDS011;64492;51.270;3.912;2022-10-30T02:39:59;4.20;;;2.60;;
75843;SDS011;64492;51.270;3.912;2022-10-30T02:42:26;4.88;;;2.75;;
75843;SDS011;64492;51.270;3.912;2022-10-30T02:44:52;4.07;;;2.42;;
75843;SDS011;64492;51.270;3.912;2022-10-30T02:47:19;4.25;;;2.58;;
75843;SDS011;64492;51.270;3.912;2022-10-30T02:49:45;4.45;;;2.72;;
75843;SDS011;64492;51.270;3.912;2022-10-30T02:52:12;4.38;;;2.60;;
75843;SDS011;64492;51.270;3.912;2022-10-30T02:54:40;5.30;;;2.80;;
75843;SDS011;64492;51.270;3.912;2022-10-30T02:57:07;5.03;;;2.90;;
75843;SDS011;64492;51.270;3.912;2022-10-30T02:59:34;5.13;;;3.00;;
75843;SDS011;64492;51.270;3.912;2022-10-30T03:02:00;4.78;;;2.88;;
75843;SDS011;64492;51.270;3.912;2022-10-30T03:04:27;3.95;;;2.60;;
75843;SDS011;64492;51.270;3.912;2022-10-30T03:06:53;4.78;;;3.00;;
75843;SDS011;64492;51.270;3.912;2022-10-30T03:09:20;4.80;;;2.70;;
75843;SDS011;64492;51.270;3.912;2022-10-30T03:11:48;4.78;;;2.70;;
75843;SDS011;64492;51.270;3.912;2022-10-30T03:14:14;5.28;;;2.97;;
75843;SDS011;64492;51.270;3.912;2022-10-30T03:16:41;5.10;;;2.53;;
75843;SDS011;64492;51.270;3.912;2022-10-30T03:19:07;4.10;;;2.53;;
75843;SDS011;64492;51.270;3.912;2022-10-30T03:21:34;4.65;;;2.78;;
75843;SDS011;64492;51.270;3.912;2022-10-30T03:24:00;5.10;;;2.90;;
75843;SDS011;64492;51.270;3.912;2022-10-30T03:26:27;3.97;;;2.90;;
75843;SDS011;64492;51.270;3.912;2022-10-30T03:28:54;4.43;;;2.72;;
75843;SDS011;64492;51.270;3.912;2022-10-30T03:31:21;4.30;;;2.85;;
75843;SDS011;64492;51.270;3.912;2022-10-30T03:33:47;5.32;;;2.80;;
75843;SDS011;64492;51.270;3.912;2022-10-30T03:36:14;4.05;;;2.70;;
75843;SDS011;64492;51.270;3.912;2022-10-30T03:38:40;4.25;;;2.70;;
75843;SDS011;64492;51.270;3.912;2022-10-30T03:41:07;3.83;;;2.80;;
75843;SDS011;64492;51.270;3.912;2022-10-30T03:43:34;4.20;;;2.70;;
75843;SDS011;64492;51.270;3.912;2022-10-30T03:46:02;5.68;;;2.88;;
75843;SDS011;64492;51.270;3.912;2022-10-30T03:48:28;4.05;;;2.53;;
75843;SDS011;64492;51.270;3.912;2022-10-30T03:50:55;5.22;;;2.55;;
75843;SDS011;64492;51.270;3.912;2022-10-30T03:53:23;5.22;;;2.35;;
75843;SDS011;64492;51.270;3.912;2022-10-30T03:55:50;3.88;;;2.70;;
75843;SDS011;64492;51.270;3.912;2022-10-30T03:58:17;5.05;;;2.75;;
75843;SDS011;64492;51.270;3.912;2022-10-30T04:00:43;6.05;;;2.63;;
75843;SDS011;64492;51.270;3.912;2022-10-30T04:03:11;4.80;;;2.72;;
75843;SDS011;64492;51.270;3.912;2022-10-30T04:05:38;3.95;;;2.83;;
75843;SDS011;64492;51.270;3.912;2022-10-30T04:08:05;5.38;;;2.83;;
75843;SDS011;64492;51.270;3.912;2022-10-30T04:12:59;4.20;;;2.67;;
75843;SDS011;64492;51.270;3.912;2022-10-30T04:15:26;4.68;;;3.03;;
75843;SDS011;64492;51.270;3.912;2022-10-30T04:17:52;3.88;;;2.78;;
75843;SDS011;64492;51.270;3.912;2022-10-30T04:20:20;3.60;;;2.50;;
75843;SDS011;64492;51.270;3.912;2022-10-30T04:22:48;4.68;;;3.17;;
75843;SDS011;64492;51.270;3.912;2022-10-30T04:25:14;4.30;;;2.78;;
75843;SDS011;64492;51.270;3.912;2022-10-30T04:27:41;4.18;;;2.58;;
75843;SDS011;64492;51.270;3.912;2022-10-30T04:30:09;4.63;;;2.50;;
75843;SDS011;64492;51.270;3.912;2022-10-30T04:32:36;5.55;;;2.97;;
75843;SDS011;64492;51.270;3.912;2022-10-30T04:35:11;4.80;;;2.60;;
75843;SDS011;64492;51.270;3.912;2022-10-30T04:37:38;4.00;;;2.50;;
75843;SDS011;64492;51.270;3.912;2022-10-30T04:40:05;4.93;;;2.60;;
75843;SDS011;64492;51.270;3.912;2022-10-30T04:42:32;4.13;;;2.65;;
75843;SDS011;64492;51.270;3.912;2022-10-30T04:44:59;7.38;;;3.10;;
75843;SDS011;64492;51.270;3.912;2022-10-30T04:47:26;4.22;;;2.42;;
75843;SDS011;64492;51.270;3.912;2022-10-30T04:49:53;4.65;;;2.70;;
75843;SDS011;64492;51.270;3.912;2022-10-30T04:52:20;4.65;;;3.00;;
75843;SDS011;64492;51.270;3.912;2022-10-30T04:54:47;4.10;;;2.83;;
75843;SDS011;64492;51.270;3.912;2022-10-30T04:57:14;4.55;;;2.70;;
75843;SDS011;64492;51.270;3.912;2022-10-30T04:59:40;4.65;;;2.47;;
75843;SDS011;64492;51.270;3.912;2022-10-30T05:02:07;4.57;;;2.30;;
75843;SDS011;64492;51.270;3.912;2022-10-30T05:04:34;4.00;;;2.47;;
75843;SDS011;64492;51.270;3.912;2022-10-30T05:07:00;4.00;;;2.70;;
75843;SDS011;64492;51.270;3.912;2022-10-30T05:09:27;4.95;;;2.60;;
75843;SDS011;64492;51.270;3.912;2022-10-30T05:11:55;4.65;;;2.70;;
75843;SDS011;64492;51.270;3.912;2022-10-30T05:14:22;5.57;;;2.70;;
75843;SDS011;64492;51.270;3.912;2022-10-30T05:16:48;4.28;;;2.90;;
75843;SDS011;64492;51.270;3.912;2022-10-30T05:19:15;4.15;;;2.42;;
75843;SDS011;64492;51.270;3.912;2022-10-30T05:21:42;4.20;;;2.53;;
75843;SDS011;64492;51.270;3.912;2022-10-30T05:24:08;4.00;;;2.50;;
75843;SDS011;64492;51.270;3.912;2022-10-30T05:26:35;4.35;;;2.80;;
75843;SDS011;64492;51.270;3.912;2022-10-30T05:29:02;3.60;;;2.47;;
75843;SDS011;64492;51.270;3.912;2022-10-30T05:31:29;5.63;;;2.70;;
75843;SDS011;64492;51.270;3.912;2022-10-30T05:33:55;4.88;;;2.78;;
75843;SDS011;64492;51.270;3.912;2022-10-30T05:36:22;4.20;;;2.75;;
75843;SDS011;64492;51.270;3.912;2022-10-30T05:38:49;4.13;;;2.75;;
75843;SDS011;64492;51.270;3.912;2022-10-30T05:41:15;4.30;;;2.45;;
75843;SDS011;64492;51.270;3.912;2022-10-30T05:43:41;4.82;;;2.83;;
75843;SDS011;64492;51.270;3.912;2022-10-30T05:46:09;3.80;;;2.63;;
75843;SDS011;64492;51.270;3.912;2022-10-30T05:48:36;4.22;;;2.60;;
75843;SDS011;64492;51.270;3.912;2022-10-30T05:51:02;4.18;;;2.42;;
75843;SDS011;64492;51.270;3.912;2022-10-30T05:53:30;5.70;;;2.90;;
75843;SDS011;64492;51.270;3.912;2022-10-30T05:55:57;6.07;;;2.58;;
75843;SDS011;64492;51.270;3.912;2022-10-30T05:58:24;4.72;;;3.10;;
75843;SDS011;64492;51.270;3.912;2022-10-30T06:00:51;5.78;;;2.92;;
75843;SDS011;64492;51.270;3.912;2022-10-30T06:03:19;3.97;;;2.63;;
75843;SDS011;64492;51.270;3.912;2022-10-30T06:05:45;4.40;;;2.72;;
75843;SDS011;64492;51.270;3.912;2022-10-30T06:08:12;4.03;;;2.38;;
75843;SDS011;64492;51.270;3.912;2022-10-30T06:10:40;4.65;;;2.63;;
75843;SDS011;64492;51.270;3.912;2022-10-30T06:13:06;5.70;;;2.58;;
75843;SDS011;64492;51.270;3.912;2022-10-30T06:15:33;4.22;;;2.65;;
75843;SDS011;64492;51.270;3.912;2022-10-30T06:17:59;3.60;;;2.38;;
75843;SDS011;64492;51.270;3.912;2022-10-30T06:20:27;4.68;;;2.20;;
75843;SDS011;64492;51.270;3.912;2022-10-30T06:22:55;5.15;;;3.13;;
75843;SDS011;64492;51.270;3.912;2022-10-30T06:25:22;4.60;;;3.00;;
75843;SDS011;64492;51.270;3.912;2022-10-30T06:27:49;3.65;;;2.67;;
75843;SDS011;64492;51.270;3.912;2022-10-30T06:30:15;3.97;;;2.60;;
75843;SDS011;64492;51.270;3.912;2022-10-30T06:32:42;5.57;;;2.80;;
75843;SDS011;64492;51.270;3.912;2022-10-30T06:35:09;3.30;;;2.33;;
75843;SDS011;64492;51.270;3.912;2022-10-30T06:37:37;3.97;;;2.60;;
75843;SDS011;64492;51.270;3.912;2022-10-30T06:40:05;5.38;;;2.75;;
75843;SDS011;64492;51.270;3.912;2022-10-30T06:42:32;4.85;;;2.63;;
75843;SDS011;64492;51.270;3.912;2022-10-30T06:44:58;4.32;;;2.63;;
75843;SDS011;64492;51.270;3.912;2022-10-30T06:47:25;4.57;;;2.90;;
75843;SDS011;64492;51.270;3.912;2022-10-30T06:49:51;5.22;;;2.83;;
75843;SDS011;64492;51.270;3.912;2022-10-30T06:52:18;4.75;;;2.90;;
75843;SDS011;64492;51.270;3.912;2022-10-30T06:54:48;4.55;;;2.70;;
75843;SDS011;64492;51.270;3.912;2022-10-30T06:57:14;4.97;;;2.88;;
75843;SDS011;64492;51.270;3.912;2022-10-30T06:59:41;4.20;;;2.60;;
75843;SDS011;64492;51.270;3.912;2022-10-30T07:02:07;4.88;;;2.60;;
75843;SDS011;64492;51.270;3.912;2022-10-30T07:04:35;6.80;;;3.28;;
75843;SDS011;64492;51.270;3.912;2022-10-30T07:07:01;4.50;;;2.50;;
75843;SDS011;64492;51.270;3.912;2022-10-30T07:09:28;7.85;;;3.05;;
75843;SDS011;64492;51.270;3.912;2022-10-30T07:11:56;6.20;;;3.10;;
75843;SDS011;64492;51.270;3.912;2022-10-30T07:14:23;8.02;;;2.70;;
75843;SDS011;64492;51.270;3.912;2022-10-30T07:16:49;8.35;;;3.10;;
75843;SDS011;64492;51.270;3.912;2022-10-30T07:19:16;5.53;;;2.80;;
75843;SDS011;64492;51.270;3.912;2022-10-30T07:21:42;5.95;;;2.70;;
75843;SDS011;64492;51.270;3.912;2022-10-30T07:24:09;6.13;;;2.78;;
75843;SDS011;64492;51.270;3.912;2022-10-30T07:26:35;5.32;;;2.95;;
75843;SDS011;64492;51.270;3.912;2022-10-30T07:29:04;6.85;;;3.00;;
75843;SDS011;64492;51.270;3.912;2022-10-30T07:31:31;4.28;;;2.60;;
75843;SDS011;64492;51.270;3.912;2022-10-30T07:33:57;4.97;;;3.00;;
75843;SDS011;64492;51.270;3.912;2022-10-30T07:36:24;6.55;;;3.13;;
75843;SDS011;64492;51.270;3.912;2022-10-30T07:38:51;24.83;;;8.75;;
75843;SDS011;64492;51.270;3.912;2022-10-30T07:41:18;15.60;;;5.63;;
75843;SDS011;64492;51.270;3.912;2022-10-30T07:43:45;11.25;;;4.10;;
75843;SDS011;64492;51.270;3.912;2022-10-30T07:46:13;9.50;;;4.35;;
75843;SDS011;64492;51.270;3.912;2022-10-30T07:51:06;8.05;;;3.60;;
75843;SDS011;64492;51.270;3.912;2022-10-30T07:53:32;11.73;;;4.10;;
75843;SDS011;64492;51.270;3.912;2022-10-30T07:55:59;7.80;;;3.60;;
75843;SDS011;64492;51.270;3.912;2022-10-30T07:58:25;6.43;;;3.28;;
75843;SDS011;64492;51.270;3.912;2022-10-30T08:00:52;7.28;;;3.60;;
75843;SDS011;64492;51.270;3.912;2022-10-30T08:03:19;7.55;;;3.22;;
75843;SDS011;64492;51.270;3.912;2022-10-30T08:05:46;8.25;;;3.30;;
75843;SDS011;64492;51.270;3.912;2022-10-30T08:08:12;7.97;;;3.30;;
75843;SDS011;64492;51.270;3.912;2022-10-30T08:10:39;8.80;;;3.75;;
75843;SDS011;64492;51.270;3.912;2022-10-30T08:13:05;8.30;;;3.42;;
75843;SDS011;64492;51.270;3.912;2022-10-30T08:15:32;9.73;;;3.72;;
75843;SDS011;64492;51.270;3.912;2022-10-30T08:17:58;9.45;;;3.40;;
75843;SDS011;64492;51.270;3.912;2022-10-30T08:20:26;5.88;;;3.45;;
75843;SDS011;64492;51.270;3.912;2022-10-30T08:22:54;7.32;;;3.33;;
75843;SDS011;64492;51.270;3.912;2022-10-30T08:25:21;5.82;;;2.80;;
75843;SDS011;64492;51.270;3.912;2022-10-30T08:30:16;8.63;;;3.50;;
75843;SDS011;64492;51.270;3.912;2022-10-30T08:32:43;6.07;;;3.05;;
75843;SDS011;64492;51.270;3.912;2022-10-30T08:35:09;6.75;;;3.72;;
75843;SDS011;64492;51.270;3.912;2022-10-30T08:37:37;7.22;;;3.42;;
75843;SDS011;64492;51.270;3.912;2022-10-30T08:40:04;6.75;;;3.88;;
75843;SDS011;64492;51.270;3.912;2022-10-30T08:42:31;8.13;;;3.22;;
75843;SDS011;64492;51.270;3.912;2022-10-30T08:44:58;7.68;;;3.38;;
75843;SDS011;64492;51.270;3.912;2022-10-30T08:47:24;6.78;;;3.40;;
75843;SDS011;64492;51.270;3.912;2022-10-30T08:49:51;4.93;;;2.95;;
75843;SDS011;64492;51.270;3.912;2022-10-30T08:52:17;6.28;;;2.97;;
75843;SDS011;64492;51.270;3.912;2022-10-30T08:54:45;5.68;;;2.90;;
75843;SDS011;64492;51.270;3.912;2022-10-30T08:57:11;5.40;;;2.90;;
75843;SDS011;64492;51.270;3.912;2022-10-30T08:59:38;5.88;;;3.05;;
75843;SDS011;64492;51.270;3.912;2022-10-30T09:02:04;7.07;;;3.40;;
75843;SDS011;64492;51.270;3.912;2022-10-30T09:04:31;5.97;;;2.92;;
75843;SDS011;64492;51.270;3.912;2022-10-30T09:06:59;5.65;;;2.67;;
75843;SDS011;64492;51.270;3.912;2022-10-30T09:09:25;6.63;;;3.10;;
75843;SDS011;64492;51.270;3.912;2022-10-30T09:11:53;4.70;;;2.75;;
75843;SDS011;64492;51.270;3.912;2022-10-30T09:14:19;6.30;;;3.08;;
75843;SDS011;64492;51.270;3.912;2022-10-30T09:16:46;6.60;;;3.00;;
75843;SDS011;64492;51.270;3.912;2022-10-30T09:19:12;5.75;;;2.70;;
75843;SDS011;64492;51.270;3.912;2022-10-30T09:21:39;5.55;;;3.00;;
75843;SDS011;64492;51.270;3.912;2022-10-30T09:24:05;4.88;;;2.88;;
75843;SDS011;64492;51.270;3.912;2022-10-30T09:26:32;6.13;;;2.95;;
75843;SDS011;64492;51.270;3.912;2022-10-30T09:29:00;5.90;;;3.08;;
75843;SDS011;64492;51.270;3.912;2022-10-30T09:31:27;5.95;;;3.10;;
75843;SDS011;64492;51.270;3.912;2022-10-30T09:33:53;5.28;;;3.03;;
75843;SDS011;64492;51.270;3.912;2022-10-30T09:36:19;5.80;;;2.97;;
75843;SDS011;64492;51.270;3.912;2022-10-30T09:38:46;5.05;;;2.70;;
75843;SDS011;64492;51.270;3.912;2022-10-30T09:41:22;5.25;;;2.83;;
75843;SDS011;64492;51.270;3.912;2022-10-30T09:44:00;5.22;;;2.70;;
75843;SDS011;64492;51.270;3.912;2022-10-30T09:46:39;6.35;;;2.83;;
75843;SDS011;64492;51.270;3.912;2022-10-30T09:49:26;6.07;;;3.00;;
75843;SDS011;64492;51.270;3.912;2022-10-30T09:52:04;6.20;;;2.90;;
75843;SDS011;64492;51.270;3.912;2022-10-30T09:54:36;4.53;;;3.08;;
75843;SDS011;64492;51.270;3.912;2022-10-30T09:57:10;4.63;;;2.72;;
75843;SDS011;64492;51.270;3.912;2022-10-30T09:59:48;4.32;;;2.58;;
75843;SDS011;64492;51.270;3.912;2022-10-30T10:02:25;4.95;;;2.60;;
75843;SDS011;64492;51.270;3.912;2022-10-30T10:04:56;5.68;;;2.80;;
75843;SDS011;64492;51.270;3.912;2022-10-30T10:07:28;4.70;;;2.78;;
75843;SDS011;64492;51.270;3.912;2022-10-30T10:09:58;6.88;;;2.92;;
75843;SDS011;64492;51.270;3.912;2022-10-30T10:12:27;4.50;;;2.80;;
75843;SDS011;64492;51.270;3.912;2022-10-30T10:14:58;4.82;;;2.67;;
75843;SDS011;64492;51.270;3.912;2022-10-30T10:17:27;6.40;;;2.85;;
75843;SDS011;64492;51.270;3.912;2022-10-30T10:19:56;6.03;;;3.03;;
75843;SDS011;64492;51.270;3.912;2022-10-30T10:22:25;5.18;;;2.72;;
75843;SDS011;64492;51.270;3.912;2022-10-30T10:24:52;4.25;;;2.63;;
75843;SDS011;64492;51.270;3.912;2022-10-30T10:27:22;4.25;;;2.63;;
75843;SDS011;64492;51.270;3.912;2022-10-30T10:29:55;3.83;;;2.47;;
75843;SDS011;64492;51.270;3.912;2022-10-30T10:32:45;4.38;;;2.78;;
75843;SDS011;64492;51.270;3.912;2022-10-30T10:35:46;4.28;;;2.78;;
75843;SDS011;64492;51.270;3.912;2022-10-30T10:38:21;3.55;;;2.50;;
75843;SDS011;64492;51.270;3.912;2022-10-30T10:40:56;4.60;;;2.63;;
75843;SDS011;64492;51.270;3.912;2022-10-30T10:43:32;4.55;;;2.83;;
75843;SDS011;64492;51.270;3.912;2022-10-30T10:46:14;5.63;;;2.60;;
75843;SDS011;64492;51.270;3.912;2022-10-30T10:48:54;5.68;;;2.72;;
75843;SDS011;64492;51.270;3.912;2022-10-30T10:51:27;5.38;;;2.80;;
75843;SDS011;64492;51.270;3.912;2022-10-30T10:53:56;5.15;;;2.78;;
75843;SDS011;64492;51.270;3.912;2022-10-30T10:56:26;5.40;;;2.75;;
75843;SDS011;64492;51.270;3.912;2022-10-30T10:58:57;7.05;;;2.63;;
75843;SDS011;64492;51.270;3.912;2022-10-30T11:01:28;4.03;;;2.47;;
75843;SDS011;64492;51.270;3.912;2022-10-30T11:03:59;4.43;;;2.55;;
75843;SDS011;64492;51.270;3.912;2022-10-30T11:06:29;3.95;;;2.67;;
75843;SDS011;64492;51.270;3.912;2022-10-30T11:08:59;5.07;;;2.50;;
75843;SDS011;64492;51.270;3.912;2022-10-30T11:11:34;4.97;;;2.90;;
75843;SDS011;64492;51.270;3.912;2022-10-30T11:14:01;5.18;;;2.90;;
75843;SDS011;64492;51.270;3.912;2022-10-30T11:16:30;5.80;;;2.47;;
75843;SDS011;64492;51.270;3.912;2022-10-30T11:19:01;4.28;;;2.33;;
75843;SDS011;64492;51.270;3.912;2022-10-30T11:21:30;4.78;;;2.65;;
75843;SDS011;64492;51.270;3.912;2022-10-30T11:23:58;4.90;;;2.72;;
75843;SDS011;64492;51.270;3.912;2022-10-30T11:26:25;4.85;;;2.65;;
75843;SDS011;64492;51.270;3.912;2022-10-30T11:28:54;4.55;;;2.60;;
75843;SDS011;64492;51.270;3.912;2022-10-30T11:31:23;4.28;;;2.70;;
75843;SDS011;64492;51.270;3.912;2022-10-30T11:33:53;4.75;;;2.70;;
75843;SDS011;64492;51.270;3.912;2022-10-30T11:36:21;3.42;;;2.53;;
75843;SDS011;64492;51.270;3.912;2022-10-30T11:38:48;4.38;;;2.50;;
75843;SDS011;64492;51.270;3.912;2022-10-30T11:41:15;4.30;;;2.67;;
75843;SDS011;64492;51.270;3.912;2022-10-30T11:43:42;4.43;;;2.80;;
75843;SDS011;64492;51.270;3.912;2022-10-30T11:46:10;4.03;;;2.40;;
75843;SDS011;64492;51.270;3.912;2022-10-30T11:48:42;4.70;;;2.67;;
75843;SDS011;64492;51.270;3.912;2022-10-30T11:51:10;4.43;;;2.55;;
75843;SDS011;64492;51.270;3.912;2022-10-30T11:53:38;3.88;;;2.33;;
75843;SDS011;64492;51.270;3.912;2022-10-30T11:56:11;4.28;;;2.53;;
75843;SDS011;64492;51.270;3.912;2022-10-30T11:58:41;5.00;;;2.63;;
75843;SDS011;64492;51.270;3.912;2022-10-30T12:01:11;5.03;;;2.58;;
75843;SDS011;64492;51.270;3.912;2022-10-30T12:03:40;4.90;;;2.80;;
75843;SDS011;64492;51.270;3.912;2022-10-30T12:06:08;3.90;;;2.50;;
75843;SDS011;64492;51.270;3.912;2022-10-30T12:08:41;4.32;;;2.78;;
75843;SDS011;64492;51.270;3.912;2022-10-30T12:11:25;4.25;;;2.88;;
75843;SDS011;64492;51.270;3.912;2022-10-30T12:13:53;4.95;;;2.90;;
75843;SDS011;64492;51.270;3.912;2022-10-30T12:16:20;4.65;;;2.70;;
75843;SDS011;64492;51.270;3.912;2022-10-30T12:18:51;3.65;;;2.45;;
75843;SDS011;64492;51.270;3.912;2022-10-30T12:21:23;5.22;;;2.60;;
75843;SDS011;64492;51.270;3.912;2022-10-30T12:23:51;5.43;;;2.65;;
75843;SDS011;64492;51.270;3.912;2022-10-30T12:26:21;5.30;;;2.60;;
75843;SDS011;64492;51.270;3.912;2022-10-30T12:28:49;4.22;;;2.67;;
75843;SDS011;64492;51.270;3.912;2022-10-30T12:31:19;3.05;;;2.10;;
75843;SDS011;64492;51.270;3.912;2022-10-30T12:33:49;4.35;;;2.70;;
75843;SDS011;64492;51.270;3.912;2022-10-30T12:36:19;4.40;;;2.40;;
75843;SDS011;64492;51.270;3.912;2022-10-30T12:41:15;3.80;;;2.20;;
75843;SDS011;64492;51.270;3.912;2022-10-30T12:43:47;4.40;;;2.42;;
75843;SDS011;64492;51.270;3.912;2022-10-30T12:46:26;4.03;;;2.58;;
75843;SDS011;64492;51.270;3.912;2022-10-30T12:48:57;3.47;;;2.47;;
75843;SDS011;64492;51.270;3.912;2022-10-30T12:51:29;4.18;;;2.38;;
75843;SDS011;64492;51.270;3.912;2022-10-30T12:54:01;4.85;;;2.70;;
75843;SDS011;64492;51.270;3.912;2022-10-30T12:56:31;4.50;;;2.58;;
75843;SDS011;64492;51.270;3.912;2022-10-30T12:59:02;5.35;;;2.70;;
75843;SDS011;64492;51.270;3.912;2022-10-30T13:01:43;3.75;;;2.35;;
75843;SDS011;64492;51.270;3.912;2022-10-30T13:04:14;4.53;;;2.40;;
75843;SDS011;64492;51.270;3.912;2022-10-30T13:06:45;4.72;;;2.60;;
75843;SDS011;64492;51.270;3.912;2022-10-30T13:09:17;5.15;;;2.60;;
75843;SDS011;64492;51.270;3.912;2022-10-30T13:11:47;4.78;;;2.60;;
75843;SDS011;64492;51.270;3.912;2022-10-30T13:14:18;5.05;;;2.75;;
75843;SDS011;64492;51.270;3.912;2022-10-30T13:16:49;4.57;;;2.65;;
75843;SDS011;64492;51.270;3.912;2022-10-30T13:19:15;3.60;;;2.50;;
75843;SDS011;64492;51.270;3.912;2022-10-30T13:21:42;4.35;;;2.58;;
75843;SDS011;64492;51.270;3.912;2022-10-30T13:24:14;3.35;;;2.20;;
75843;SDS011;64492;51.270;3.912;2022-10-30T13:26:46;4.25;;;2.63;;
75843;SDS011;64492;51.270;3.912;2022-10-30T13:29:19;3.90;;;2.40;;
75843;SDS011;64492;51.270;3.912;2022-10-30T13:31:59;4.15;;;2.40;;
75843;SDS011;64492;51.270;3.912;2022-10-30T13:34:44;4.05;;;2.40;;
75843;SDS011;64492;51.270;3.912;2022-10-30T13:37:16;3.83;;;2.50;;
75843;SDS011;64492;51.270;3.912;2022-10-30T13:39:51;4.05;;;2.78;;
75843;SDS011;64492;51.270;3.912;2022-10-30T13:42:28;4.47;;;2.30;;
75843;SDS011;64492;51.270;3.912;2022-10-30T13:45:05;5.30;;;2.55;;
75843;SDS011;64492;51.270;3.912;2022-10-30T13:47:43;3.95;;;2.30;;
75843;SDS011;64492;51.270;3.912;2022-10-30T13:50:16;3.65;;;2.40;;
75843;SDS011;64492;51.270;3.912;2022-10-30T13:52:50;4.22;;;2.28;;
75843;SDS011;64492;51.270;3.912;2022-10-30T13:55:22;4.55;;;2.75;;
75843;SDS011;64492;51.270;3.912;2022-10-30T13:57:51;4.63;;;2.40;;
75843;SDS011;64492;51.270;3.912;2022-10-30T14:00:21;5.03;;;2.50;;
75843;SDS011;64492;51.270;3.912;2022-10-30T14:05:39;3.72;;;2.33;;
75843;SDS011;64492;51.270;3.912;2022-10-30T14:08:12;4.53;;;2.33;;
75843;SDS011;64492;51.270;3.912;2022-10-30T14:10:45;3.40;;;2.40;;
75843;SDS011;64492;51.270;3.912;2022-10-30T14:13:13;4.53;;;2.10;;
75843;SDS011;64492;51.270;3.912;2022-10-30T14:15:42;5.38;;;2.40;;
75843;SDS011;64492;51.270;3.912;2022-10-30T14:18:22;4.05;;;2.38;;
75843;SDS011;64492;51.270;3.912;2022-10-30T14:20:50;3.70;;;2.17;;
75843;SDS011;64492;51.270;3.912;2022-10-30T14:23:21;4.10;;;2.13;;
75843;SDS011;64492;51.270;3.912;2022-10-30T14:28:47;3.08;;;2.05;;
75843;SDS011;64492;51.270;3.912;2022-10-30T14:31:15;4.38;;;2.50;;
75843;SDS011;64492;51.270;3.912;2022-10-30T14:33:44;3.33;;;2.22;;
75843;SDS011;64492;51.270;3.912;2022-10-30T14:36:12;3.75;;;2.35;;
75843;SDS011;64492;51.270;3.912;2022-10-30T14:38:50;4.45;;;2.47;;
75843;SDS011;64492;51.270;3.912;2022-10-30T14:41:29;3.63;;;2.00;;
75843;SDS011;64492;51.270;3.912;2022-10-30T14:44:02;4.20;;;2.17;;
75843;SDS011;64492;51.270;3.912;2022-10-30T14:46:33;3.58;;;2.20;;
75843;SDS011;64492;51.270;3.912;2022-10-30T14:49:08;3.15;;;2.15;;
75843;SDS011;64492;51.270;3.912;2022-10-30T14:51:58;3.15;;;1.85;;
75843;SDS011;64492;51.270;3.912;2022-10-30T14:54:35;3.70;;;2.08;;
75843;SDS011;64492;51.270;3.912;2022-10-30T14:57:11;4.00;;;2.38;;
75843;SDS011;64492;51.270;3.912;2022-10-30T14:59:45;3.58;;;2.10;;
75843;SDS011;64492;51.270;3.912;2022-10-30T15:02:17;3.90;;;2.20;;
75843;SDS011;64492;51.270;3.912;2022-10-30T15:05:11;4.18;;;2.10;;
75843;SDS011;64492;51.270;3.912;2022-10-30T15:07:48;3.33;;;2.10;;
75843;SDS011;64492;51.270;3.912;2022-10-30T15:10:18;2.90;;;1.90;;
75843;SDS011;64492;51.270;3.912;2022-10-30T15:12:56;3.03;;;2.10;;
75843;SDS011;64492;51.270;3.912;2022-10-30T15:15:27;3.40;;;1.80;;
75843;SDS011;64492;51.270;3.912;2022-10-30T15:17:54;3.53;;;2.00;;
75843;SDS011;64492;51.270;3.912;2022-10-30T15:20:23;3.30;;;1.80;;